Time;durP1;ratioP1;P1;durP2;ratioP2;P2;SDS_P1;SDS_P2;PMS_P1;PMS_P2;Temp;Humidity;BMP_temperature;BMP_pressure;BME280_temperature;BME280_humidity;BME280_pressure;Samples;Min_cycle;Max_cycle;Signal;HPM_P1;HPM_P2
2022/03/12 00:01:36;;;;;;;1.87;1.00;;;8.90;93.90;;;;;;21025246;28;20817;-66
2022/03/12 00:11:51;;;;;;;2.47;1.27;;;;;;;;;;21025528;28;20237;-66
2022/03/12 00:21:54;;;;;;;1.73;0.90;;;;;;;;;;21024686;28;20204;-66
2022/03/12 00:31:56;;;;;;;2.20;1.10;;;;;;;;;;21040830;28;20212;-66
2022/03/12 00:41:58;;;;;;;2.57;1.47;;;;;;;;;;21040424;28;20241;-66
2022/03/12 00:52:00;;;;;;;2.57;1.20;;;;;;;;;;21023030;28;20212;-66
2022/03/12 01:02:02;;;;;;;2.60;1.37;;;;;;;;;;21021893;28;20216;-67
2022/03/12 01:12:04;;;;;;;1.23;1.00;;;8.10;99.90;;;;;;21022851;28;20265;-67
2022/03/12 01:22:06;;;;;;;2.73;1.33;;;8.40;99.90;;;;;;21038707;28;20208;-67
2022/03/12 01:32:09;;;;;;;2.43;1.10;;;;;;;;;;21055263;28;20204;-67
2022/03/12 01:42:12;;;;;;;1.93;1.20;;;;;;;;;;21036653;28;20238;-67
2022/03/12 01:52:14;;;;;;;4.93;1.30;;;;;;;;;;21036912;28;20250;-66
2022/03/12 02:02:16;;;;;;;1.93;1.20;;;8.10;99.90;;;;;;21051684;28;20220;-66
2022/03/12 02:12:19;;;;;;;2.13;1.00;;;8.10;99.90;;;;;;21034638;28;20632;-66
2022/03/12 02:22:21;;;;;;;1.70;1.20;;;;;;;;;;21033937;28;20219;-66
2022/03/12 02:32:23;;;;;;;2.50;1.23;;;;;;;;;;21049025;28;20579;-66
2022/03/12 02:42:25;;;;;;;2.70;1.60;;;;;;;;;;21032474;28;20249;-66
2022/03/12 02:52:27;;;;;;;1.63;1.30;;;;;;;;;;21048635;28;20262;-66
2022/03/12 03:02:39;;;;;;;2.57;1.20;;;;;;;;;;21047188;28;20200;-66
2022/03/12 03:12:41;;;;;;;1.60;1.00;;;;;;;;;;21046608;28;20216;-67
2022/03/12 03:22:43;;;;;;;2.40;1.40;;;;;;;;;;21045364;28;20221;-66
2022/03/12 03:32:45;;;;;;;1.60;1.20;;;;;;;;;;21028614;28;20695;-66
2022/03/12 03:42:47;;;;;;;2.27;1.50;;;7.60;99.90;;;;;;21043144;28;20197;-66
2022/03/12 03:52:50;;;;;;;2.43;1.50;;;;;;;;;;21026094;28;20212;-66
2022/03/12 04:03:02;;;;;;;1.97;1.20;;;7.70;99.90;;;;;;21025342;28;20719;-66
2022/03/12 04:13:10;;;;;;;1.97;1.30;;;;;;;;;;21041848;28;20242;-66
2022/03/12 04:23:15;;;;;;;2.67;1.40;;;;;;;;;;21024802;28;20752;-66
2022/03/12 04:33:20;;;;;;;2.27;1.27;;;7.50;99.90;;;;;;21024011;28;20631;-66
2022/03/12 04:43:26;;;;;;;2.63;1.40;;;7.40;99.90;;;;;;21023118;28;20204;-67
2022/03/12 04:53:28;;;;;;;1.90;1.20;;;;;;;;;;21022661;28;20242;-66
2022/03/12 05:03:30;;;;;;;1.40;1.10;;;;;;;;;;21021395;28;20215;-66
2022/03/12 05:13:33;;;;;;;2.30;1.40;;;;;;;;;;20938979;28;20274;-67
2022/03/12 05:23:35;;;;;;;1.80;1.00;;;;;;;;;;20921707;28;20204;-66
2022/03/12 05:33:38;;;;;;;8.07;1.43;;;;;;;;;;20954312;28;20267;-66
2022/03/12 05:43:44;;;;;;;6.47;1.60;;;;;;;;;;20920572;28;20270;-66
2022/03/12 05:53:47;;;;;;;1.67;1.03;;;;;;;;;;20953329;28;20700;-66
2022/03/12 06:03:49;;;;;;;4.83;1.57;;;;;;;;;;20960500;28;20640;-66
2022/03/12 06:13:54;;;;;;;1.17;0.97;;;;;;;;;;20934626;28;20251;-66
2022/03/12 06:23:58;;;;;;;2.03;1.20;;;;;;;;;;20982704;28;20213;-66
2022/03/12 06:34:02;;;;;;;2.30;0.97;;;;;;;;;;21020640;28;20257;-66
2022/03/12 06:44:06;;;;;;;5.67;1.77;;;7.20;99.90;;;;;;21050025;28;20212;-66
2022/03/12 06:54:09;;;;;;;1.50;1.00;;;;;;;;;;20998396;28;20286;-66
2022/03/12 07:04:11;;;;;;;3.33;1.70;;;;;;;;;;21020759;28;20224;-66
2022/03/12 07:14:13;;;;;;;2.53;1.63;;;;;;;;;;21036771;28;20297;-66
2022/03/12 07:24:16;;;;;;;2.87;1.40;;;7.70;99.90;;;;;;21017909;28;20217;-66
2022/03/12 07:34:19;;;;;;;2.20;0.97;;;8.10;98.20;;;;;;21045723;28;20220;-66
2022/03/12 07:44:23;;;;;;;2.53;1.47;;;8.40;98.80;;;;;;21040234;28;20225;-67
2022/03/12 07:54:25;;;;;;;2.47;1.10;;;;;;;;;;21019647;28;20233;-66
2022/03/12 08:04:30;;;;;;;1.83;1.13;;;;;;;;;;21058863;28;20695;-66
2022/03/12 08:14:32;;;;;;;2.47;1.43;;;;;;;;;;21039784;28;20220;-65
2022/03/12 08:24:34;;;;;;;2.50;1.40;;;;;;;;;;21058297;28;20212;-66
2022/03/12 08:34:36;;;;;;;4.03;0.90;;;9.40;98.60;;;;;;21058100;28;20242;-64
2022/03/12 08:44:39;;;;;;;2.33;1.73;;;;;;;;;;21031422;28;20208;-65
2022/03/12 08:54:42;;;;;;;1.87;1.00;;;;;;;;;;21047122;28;20229;-65
2022/03/12 09:04:43;;;;;;;1.50;1.17;;;;;;;;;;21068725;28;20204;-65
2022/03/12 09:14:45;;;;;;;2.37;1.67;;;;;;;;;;21068871;28;20580;-65
2022/03/12 09:24:47;;;;;;;2.77;1.60;;;;;;;;;;21036921;28;20213;-66
2022/03/12 09:34:49;;;;;;;3.40;1.67;;;;;;;;;;21034676;28;20220;-65
2022/03/12 09:44:51;;;;;;;1.63;1.00;;;;;;;;;;21052465;28;20246;-65
2022/03/12 09:54:53;;;;;;;1.90;1.03;;;;;;;;;;21051428;28;20250;-65
2022/03/12 10:04:55;;;;;;;4.63;1.30;;;;;;;;;;21049839;28;20238;-65
2022/03/12 10:14:58;;;;;;;1.50;1.03;;;;;;;;;;21043252;28;20270;-65
2022/03/12 10:25:00;;;;;;;1.90;1.07;;;;;;;;;;21057263;28;20212;-65
2022/03/12 10:35:12;;;;;;;2.50;1.60;;;10.50;99.90;;;;;;21044646;28;20221;-66
2022/03/12 10:45:20;;;;;;;2.63;1.67;;;;;;;;;;21057853;28;20208;-66
2022/03/12 10:55:33;;;;;;;3.60;1.93;;;;;;;;;;21042312;28;20270;-66
2022/03/12 11:05:39;;;;;;;2.20;1.33;;;11.90;96.50;;;;;;21003817;28;20212;-66
2022/03/12 11:15:47;;;;;;;3.40;1.93;;;;;;;;;;21059937;28;20217;-64
2022/03/12 11:26:00;;;;;;;3.07;1.53;;;;;;;;;;21056705;28;20213;-65
2022/03/12 11:36:11;;;;;;;2.73;1.63;;;;;;;;;;21009769;28;20285;-66
2022/03/12 11:46:21;;;;;;;2.10;1.27;;;12.50;95.50;;;;;;21017715;28;20216;-66
2022/03/12 11:56:27;;;;;;;2.33;1.63;;;13.00;99.90;;;;;;21048032;28;20297;-65
2022/03/12 12:06:39;;;;;;;2.73;1.90;;;;;;;;;;21034745;28;20217;-65
2022/03/12 12:16:53;;;;;;;;;;;;;;;;;;;;;
2022/03/12 12:27:01;;;;;;;3.57;1.97;;;;;;;;;;20962999;22;20234;-69
2022/03/12 12:37:04;;;;;;;3.80;2.30;;;;;;;;;;20815706;28;20236;-71
2022/03/12 12:47:08;;;;;;;2.70;1.90;;;;;;;;;;20817653;28;20252;-71
2022/03/12 12:57:11;;;;;;;3.37;2.07;;;13.50;99.90;;;;;;20797547;28;20276;-71
2022/03/12 13:07:24;;;;;;;2.97;1.67;;;15.70;99.90;;;;;;20813471;28;20233;-70
2022/03/12 13:17:27;;;;;;;3.43;1.67;;;13.40;99.90;;;;;;20814185;28;20206;-71
2022/03/12 13:27:31;;;;;;;3.03;1.90;;;13.30;99.90;;;;;;20814109;28;20218;-71
2022/03/12 13:37:35;;;;;;;3.00;1.60;;;;;;;;;;20776246;28;20219;-71
2022/03/12 13:47:37;;;;;;;3.47;2.33;;;;;;;;;;20797580;28;20758;-71
2022/03/12 13:57:40;;;;;;;2.53;1.73;;;;;;;;;;20780227;28;20245;-71
2022/03/12 14:07:42;;;;;;;3.10;1.70;;;;;;;;;;20800250;28;20280;-71
2022/03/12 14:17:47;;;;;;;3.03;1.73;;;14.70;99.90;;;;;;20816058;28;20202;-71
2022/03/12 14:27:49;;;;;;;4.40;1.47;;;;;;;;;;20827987;28;20280;-71
2022/03/12 14:37:51;;;;;;;3.77;1.67;;;;;;;;;;20806439;28;20265;-71
2022/03/12 14:47:53;;;;;;;2.20;1.43;;;;;;;;;;20798026;28;20268;-71
2022/03/12 14:57:55;;;;;;;3.67;1.90;;;;;;;;;;20758398;28;20633;-71
2022/03/12 15:08:01;;;;;;;2.93;1.80;;;14.10;99.90;;;;;;20746590;28;20718;-71
2022/03/12 15:18:08;;;;;;;3.43;1.70;;;13.60;99.90;;;;;;20747337;28;20218;-71
2022/03/12 15:28:21;;;;;;;3.77;2.00;;;13.70;99.90;;;;;;20768726;28;20225;-71
2022/03/12 15:38:22;;;;;;;3.97;1.60;;;;;;;;;;20825873;28;20674;-71
2022/03/12 15:48:25;;;;;;;1.93;1.37;;;13.30;99.90;;;;;;20831038;28;20226;-72
2022/03/12 15:58:33;;;;;;;1.90;1.30;;;;;;;;;;20813297;28;20215;-72
2022/03/12 16:08:37;;;;;;;3.57;1.47;;;;;;;;;;20821245;28;20237;-73
2022/03/12 16:18:45;;;;;;;1.63;0.87;;;;;;;;;;20825376;28;20237;-73
2022/03/12 16:28:47;;;;;;;1.77;1.00;;;;;;;;;;20820514;28;20214;-72
2022/03/12 16:38:50;;;;;;;2.10;0.90;;;;;;;;;;20824516;28;20222;-72
2022/03/12 16:48:52;;;;;;;3.37;1.50;;;;;;;;;;20823021;28;20249;-72
2022/03/12 16:58:54;;;;;;;3.47;1.70;;;;;;;;;;20808544;28;20268;-72
2022/03/12 17:08:56;;;;;;;2.77;1.50;;;;;;;;;;20816135;28;20268;-72
2022/03/12 17:18:58;;;;;;;2.43;1.60;;;;;;;;;;20817817;28;20234;-72
2022/03/12 17:28:59;;;;;;;3.47;1.83;;;;;;;;;;20814899;28;20257;-71
2022/03/12 17:39:01;;;;;;;2.83;1.57;;;;;;;;;;20811794;28;20686;-70
2022/03/12 17:49:04;;;;;;;4.33;2.50;;;;;;;;;;20811889;28;20226;-70
2022/03/12 17:59:06;;;;;;;3.27;1.73;;;;;;;;;;20815422;28;20559;-71
2022/03/12 18:09:10;;;;;;;3.80;2.13;;;;;;;;;;20825436;28;20222;-70
2022/03/12 18:19:13;;;;;;;8.73;2.73;;;;;;;;;;20826499;28;20760;-70
2022/03/12 18:29:15;;;;;;;5.63;2.30;;;;;;;;;;20767762;23;20252;-65
2022/03/12 18:39:17;;;;;;;3.43;2.13;;;;;;;;;;20584441;28;20225;-65
2022/03/12 18:49:19;;;;;;;6.43;2.50;;;;;;;;;;20558709;28;20362;-65
2022/03/12 18:59:21;;;;;;;4.27;2.30;;;;;;;;;;20560345;28;20216;-66
2022/03/12 19:09:23;;;;;;;6.27;2.23;;;;;;;;;;20607547;28;20224;-66
2022/03/12 19:19:27;;;;;;;3.87;2.20;;;;;;;;;;20582164;28;20213;-66
2022/03/12 19:29:29;;;;;;;7.87;3.13;;;;;;;;;;20551103;28;20225;-66
2022/03/12 19:39:32;;;;;;;7.07;2.70;;;;;;;;;;20545112;28;20216;-66
2022/03/12 19:49:38;;;;;;;4.00;2.33;;;;;;;;;;20568618;28;20318;-66
2022/03/12 19:59:40;;;;;;;4.63;2.70;;;;;;;;;;20544837;28;20255;-66
2022/03/12 20:09:41;;;;;;;7.77;3.23;;;;;;;;;;20545998;28;20267;-66
2022/03/12 20:19:43;;;;;;;7.67;2.87;;;;;;;;;;20561074;28;20220;-65
2022/03/12 20:29:49;;;;;;;3.97;2.40;;;;;;;;;;20546683;28;20640;-65
2022/03/12 20:39:51;;;;;;;4.93;3.20;;;;;;;;;;20564201;28;20221;-66
2022/03/12 20:49:53;;;;;;;7.10;3.67;;;;;;;;;;20554661;28;20305;-66
2022/03/12 20:59:55;;;;;;;9.60;5.30;;;;;;;;;;20551388;28;20212;-65
2022/03/12 21:09:57;;;;;;;4.73;2.60;;;;;;;;;;20507526;28;20291;-65
2022/03/12 21:19:59;;;;;;;4.03;2.30;;;;;;;;;;20492755;28;20237;-65
2022/03/12 21:30:01;;;;;;;5.53;2.87;;;;;;;;;;20497842;28;20649;-65
2022/03/12 21:40:03;;;;;;;4.50;2.90;;;;;;;;;;20585918;28;20278;-66
2022/03/12 21:50:07;;;;;;;9.80;5.87;;;9.40;99.90;;;;;;20556911;28;20298;-66
2022/03/12 22:00:19;;;;;;;4.63;3.20;;;9.40;99.90;;;;;;20595651;28;20298;-66
2022/03/12 22:10:23;;;;;;;8.70;4.67;;;9.40;99.90;;;;;;20676921;28;20231;-66
2022/03/12 22:20:26;;;;;;;4.10;2.17;;;9.30;99.90;;;;;;20628505;28;20262;-66
2022/03/12 22:30:31;;;;;;;3.80;2.43;;;;;;;;;;20666194;28;20216;-66
2022/03/12 22:40:33;;;;;;;5.20;3.30;;;;;;;;;;20648570;28;20298;-66
2022/03/12 22:50:36;;;;;;;6.83;2.70;;;8.90;99.90;;;;;;20625358;28;20212;-66
2022/03/12 23:00:44;;;;;;;4.63;2.60;;;;;;;;;;20551876;28;20634;-66
2022/03/12 23:10:46;;;;;;;3.50;1.97;;;;;;;;;;20549572;28;20225;-65
2022/03/12 23:20:48;;;;;;;5.53;2.50;;;;;;;;;;20564840;28;20243;-65
2022/03/12 23:30:49;;;;;;;4.70;2.73;;;;;;;;;;20606766;28;20247;-65
2022/03/12 23:40:55;;;;;;;4.17;2.30;;;8.40;99.90;;;;;;20605874;28;20208;-67
2022/03/12 23:50:59;;;;;;;3.93;2.37;;;;;;;;;;20627287;28;20270;-65
